sensor_id;sensor_type;location;lat;lon;timestamp;pressure;altitude;pressure_sealevel;temperature;humidity
10658;BME280;5377;43.276;26.930;2023-07-31T00:01:46;98453.03;;;21.39;100.00
10658;BME280;5377;43.276;26.930;2023-07-31T00:04:13;98429.19;;;21.26;100.00
10658;BME280;5377;43.276;26.930;2023-07-31T00:06:41;98459.69;;;21.28;100.00
10658;BME280;5377;43.276;26.930;2023-07-31T00:09:08;98465.66;;;21.30;100.00
10658;BME280;5377;43.276;26.930;2023-07-31T00:11:35;98467.22;;;21.07;100.00
10658;BME280;5377;43.276;26.930;2023-07-31T00:14:01;98493.56;;;21.16;100.00
10658;BME280;5377;43.276;26.930;2023-07-31T00:16:29;98516.97;;;21.17;100.00
10658;BME280;5377;43.276;26.930;2023-07-31T00:18:56;98474.44;;;21.22;91.64
10658;BME280;5377;43.276;26.930;2023-07-31T00:21:23;98479.50;;;21.33;96.00
10658;BME280;5377;43.276;26.930;2023-07-31T00:23:51;98480.50;;;21.42;89.64
10658;BME280;5377;43.276;26.930;2023-07-31T00:26:18;98473.31;;;21.52;92.61
10658;BME280;5377;43.276;26.930;2023-07-31T00:28:44;98483.94;;;21.53;100.00
10658;BME280;5377;43.276;26.930;2023-07-31T00:31:11;98472.25;;;21.71;95.26
10658;BME280;5377;43.276;26.930;2023-07-31T00:33:38;98418.91;;;21.65;88.47
10658;BME280;5377;43.276;26.930;2023-07-31T00:36:05;98435.59;;;21.83;80.98
10658;BME280;5377;43.276;26.930;2023-07-31T00:38:31;98476.13;;;21.89;81.91
10658;BME280;5377;43.276;26.930;2023-07-31T00:41:00;98453.38;;;21.99;79.02
10658;BME280;5377;43.276;26.930;2023-07-31T00:43:26;98430.09;;;22.06;76.34
10658;BME280;5377;43.276;26.930;2023-07-31T00:45:53;98431.94;;;22.11;75.52
10658;BME280;5377;43.276;26.930;2023-07-31T00:48:21;98423.34;;;22.23;73.83
10658;BME280;5377;43.276;26.930;2023-07-31T00:50:47;98419.13;;;22.30;72.46
10658;BME280;5377;43.276;26.930;2023-07-31T00:53:14;98428.34;;;22.34;74.71
10658;BME280;5377;43.276;26.930;2023-07-31T00:55:42;98417.34;;;22.39;72.02
10658;BME280;5377;43.276;26.930;2023-07-31T00:58:10;98397.94;;;22.41;71.41
10658;BME280;5377;43.276;26.930;2023-07-31T01:00:37;98407.97;;;22.46;70.32
10658;BME280;5377;43.276;26.930;2023-07-31T01:03:04;98409.94;;;22.59;69.99
10658;BME280;5377;43.276;26.930;2023-07-31T01:05:39;98415.75;;;22.52;69.11
10658;BME280;5377;43.276;26.930;2023-07-31T01:08:15;98422.47;;;22.60;69.00
10658;BME280;5377;43.276;26.930;2023-07-31T01:10:46;98420.88;;;22.59;69.52
10658;BME280;5377;43.276;26.930;2023-07-31T01:13:17;98427.06;;;22.46;70.47
10658;BME280;5377;43.276;26.930;2023-07-31T01:15:44;98413.84;;;22.53;70.83
10658;BME280;5377;43.276;26.930;2023-07-31T01:18:11;98414.94;;;22.52;71.26
10658;BME280;5377;43.276;26.930;2023-07-31T01:20:42;98346.88;;;22.09;73.01
10658;BME280;5377;43.276;26.930;2023-07-31T01:23:27;98424.75;;;22.53;74.63
10658;BME280;5377;43.276;26.930;2023-07-31T01:26:04;98418.31;;;22.30;76.12
10658;BME280;5377;43.276;26.930;2023-07-31T01:28:37;98431.22;;;22.24;77.00
10658;BME280;5377;43.276;26.930;2023-07-31T01:31:07;98433.44;;;22.22;79.07
10658;BME280;5377;43.276;26.930;2023-07-31T01:33:37;98433.44;;;22.22;79.36
10658;BME280;5377;43.276;26.930;2023-07-31T01:36:05;98432.97;;;22.15;80.29
10658;BME280;5377;43.276;26.930;2023-07-31T01:38:32;98443.50;;;22.03;82.17
10658;BME280;5377;43.276;26.930;2023-07-31T01:40:59;98444.16;;;21.95;82.35
10658;BME280;5377;43.276;26.930;2023-07-31T01:43:27;98443.75;;;21.83;82.45
10658;BME280;5377;43.276;26.930;2023-07-31T01:45:54;98441.69;;;21.74;83.37
10658;BME280;5377;43.276;26.930;2023-07-31T01:48:20;98450.91;;;21.78;83.50
10658;BME280;5377;43.276;26.930;2023-07-31T01:50:47;98443.75;;;21.64;84.88
10658;BME280;5377;43.276;26.930;2023-07-31T01:53:14;98416.19;;;21.17;88.38
10658;BME280;5377;43.276;26.930;2023-07-31T01:55:41;98453.13;;;21.29;91.81
10658;BME280;5377;43.276;26.930;2023-07-31T01:58:08;98466.13;;;21.37;94.88
10658;BME280;5377;43.276;26.930;2023-07-31T02:00:36;98453.34;;;21.03;99.31
10658;BME280;5377;43.276;26.930;2023-07-31T02:03:02;98461.06;;;20.96;100.00
10658;BME280;5377;43.276;26.930;2023-07-31T02:05:29;98462.91;;;21.01;100.00
10658;BME280;5377;43.276;26.930;2023-07-31T02:07:56;98468.69;;;20.94;100.00
10658;BME280;5377;43.276;26.930;2023-07-31T02:10:23;98464.88;;;20.95;100.00
10658;BME280;5377;43.276;26.930;2023-07-31T02:12:50;98417.06;;;20.55;100.00
10658;BME280;5377;43.276;26.930;2023-07-31T02:15:16;98469.91;;;20.78;100.00
10658;BME280;5377;43.276;26.930;2023-07-31T02:17:45;98469.91;;;20.78;100.00
10658;BME280;5377;43.276;26.930;2023-07-31T02:20:12;98460.16;;;20.72;100.00
10658;BME280;5377;43.276;26.930;2023-07-31T02:22:38;98474.19;;;20.89;100.00
10658;BME280;5377;43.276;26.930;2023-07-31T02:25:06;98474.16;;;20.94;100.00
10658;BME280;5377;43.276;26.930;2023-07-31T02:27:32;98469.97;;;21.02;100.00
10658;BME280;5377;43.276;26.930;2023-07-31T02:29:59;98459.56;;;21.09;100.00
10658;BME280;5377;43.276;26.930;2023-07-31T02:32:26;98452.31;;;20.99;95.87
10658;BME280;5377;43.276;26.930;2023-07-31T02:34:54;98461.91;;;21.21;98.02
10658;BME280;5377;43.276;26.930;2023-07-31T02:37:21;98454.34;;;21.12;100.00
10658;BME280;5377;43.276;26.930;2023-07-31T02:39:48;98462.19;;;21.24;100.00
10658;BME280;5377;43.276;26.930;2023-07-31T02:42:14;98456.97;;;21.28;100.00
10658;BME280;5377;43.276;26.930;2023-07-31T02:44:41;98455.88;;;21.29;100.00
10658;BME280;5377;43.276;26.930;2023-07-31T02:47:08;98461.38;;;21.24;100.00
10658;BME280;5377;43.276;26.930;2023-07-31T02:49:35;98459.69;;;21.28;100.00
10658;BME280;5377;43.276;26.930;2023-07-31T02:52:04;98455.34;;;21.27;100.00
10658;BME280;5377;43.276;26.930;2023-07-31T02:54:31;98458.91;;;21.22;100.00
10658;BME280;5377;43.276;26.930;2023-07-31T02:56:57;98458.16;;;21.16;100.00
10658;BME280;5377;43.276;26.930;2023-07-31T02:59:24;98453.59;;;21.07;100.00
10658;BME280;5377;43.276;26.930;2023-07-31T03:01:51;98454.47;;;21.02;100.00
10658;BME280;5377;43.276;26.930;2023-07-31T03:04:18;98457.38;;;21.11;100.00
10658;BME280;5377;43.276;26.930;2023-07-31T03:06:45;98468.47;;;21.20;100.00
10658;BME280;5377;43.276;26.930;2023-07-31T03:09:13;98459.72;;;21.23;100.00
10658;BME280;5377;43.276;26.930;2023-07-31T03:11:40;98391.50;;;20.80;100.00
10658;BME280;5377;43.276;26.930;2023-07-31T03:14:06;98461.38;;;21.24;100.00
10658;BME280;5377;43.276;26.930;2023-07-31T03:16:33;98466.56;;;21.15;100.00
10658;BME280;5377;43.276;26.930;2023-07-31T03:19:00;98461.47;;;21.08;100.00
10658;BME280;5377;43.276;26.930;2023-07-31T03:21:27;98457.06;;;21.17;100.00
10658;BME280;5377;43.276;26.930;2023-07-31T03:23:54;98453.31;;;21.08;100.00
10658;BME280;5377;43.276;26.930;2023-07-31T03:26:22;98459.56;;;21.09;100.00
10658;BME280;5377;43.276;26.930;2023-07-31T03:28:48;98446.91;;;20.94;100.00
10658;BME280;5377;43.276;26.930;2023-07-31T03:31:15;98464.19;;;21.08;100.00
10658;BME280;5377;43.276;26.930;2023-07-31T03:33:42;98456.66;;;21.00;100.00
10658;BME280;5377;43.276;26.930;2023-07-31T03:36:09;98471.81;;;20.82;100.00
10658;BME280;5377;43.276;26.930;2023-07-31T03:38:36;98470.06;;;20.63;100.00
10658;BME280;5377;43.276;26.930;2023-07-31T03:41:03;98471.53;;;20.45;100.00
10658;BME280;5377;43.276;26.930;2023-07-31T03:43:30;98472.25;;;20.61;100.00
10658;BME280;5377;43.276;26.930;2023-07-31T03:45:56;98476.75;;;20.75;100.00
10658;BME280;5377;43.276;26.930;2023-07-31T03:48:23;98474.44;;;20.59;100.00
10658;BME280;5377;43.276;26.930;2023-07-31T03:50:50;98478.94;;;20.73;100.00
10658;BME280;5377;43.276;26.930;2023-07-31T03:53:17;98478.94;;;20.73;100.00
10658;BME280;5377;43.276;26.930;2023-07-31T03:55:44;98486.50;;;20.47;100.00
10658;BME280;5377;43.276;26.930;2023-07-31T03:58:10;98482.78;;;20.28;100.00
10658;BME280;5377;43.276;26.930;2023-07-31T04:00:40;98469.25;;;20.18;100.00
10658;BME280;5377;43.276;26.930;2023-07-31T04:03:07;98450.00;;;20.04;100.00
10658;BME280;5377;43.276;26.930;2023-07-31T04:05:38;98488.22;;;20.28;100.00
10658;BME280;5377;43.276;26.930;2023-07-31T04:08:05;98493.88;;;20.37;100.00
10658;BME280;5377;43.276;26.930;2023-07-31T04:10:32;98494.75;;;20.27;100.00
10658;BME280;5377;43.276;26.930;2023-07-31T04:12:59;98485.13;;;20.50;100.00
10658;BME280;5377;43.276;26.930;2023-07-31T04:15:26;98492.75;;;20.48;100.00
10658;BME280;5377;43.276;26.930;2023-07-31T04:17:54;98474.53;;;20.43;100.00
10658;BME280;5377;43.276;26.930;2023-07-31T04:20:20;98500.66;;;20.78;100.00
10658;BME280;5377;43.276;26.930;2023-07-31T04:22:48;98481.72;;;20.68;100.00
10658;BME280;5377;43.276;26.930;2023-07-31T04:25:15;98499.75;;;20.93;100.00
10658;BME280;5377;43.276;26.930;2023-07-31T04:27:42;98505.94;;;20.99;100.00
10658;BME280;5377;43.276;26.930;2023-07-31T04:30:09;98476.13;;;21.12;100.00
10658;BME280;5377;43.276;26.930;2023-07-31T04:32:36;98498.75;;;21.42;100.00
10658;BME280;5377;43.276;26.930;2023-07-31T04:35:04;98486.13;;;21.51;100.00
10658;BME280;5377;43.276;26.930;2023-07-31T04:37:31;98494.13;;;21.66;100.00
10658;BME280;5377;43.276;26.930;2023-07-31T04:39:58;98496.84;;;21.90;100.00
10658;BME280;5377;43.276;26.930;2023-07-31T04:42:25;98502.88;;;22.11;100.00
10658;BME280;5377;43.276;26.930;2023-07-31T04:44:52;98513.94;;;22.38;100.00
10658;BME280;5377;43.276;26.930;2023-07-31T04:47:19;98510.41;;;22.57;100.00
10658;BME280;5377;43.276;26.930;2023-07-31T04:49:46;98519.19;;;22.72;100.00
10658;BME280;5377;43.276;26.930;2023-07-31T04:52:14;98498.16;;;22.73;100.00
10658;BME280;5377;43.276;26.930;2023-07-31T04:54:41;98514.91;;;22.85;100.00
10658;BME280;5377;43.276;26.930;2023-07-31T04:57:08;98509.00;;;22.97;100.00
10658;BME280;5377;43.276;26.930;2023-07-31T04:59:34;98480.81;;;22.83;100.00
10658;BME280;5377;43.276;26.930;2023-07-31T05:02:02;98518.28;;;22.96;100.00
10658;BME280;5377;43.276;26.930;2023-07-31T05:04:29;98511.56;;;22.88;100.00
10658;BME280;5377;43.276;26.930;2023-07-31T05:06:56;98507.16;;;22.92;100.00
10658;BME280;5377;43.276;26.930;2023-07-31T05:09:24;98500.72;;;22.83;100.00
10658;BME280;5377;43.276;26.930;2023-07-31T05:11:51;98522.06;;;23.00;100.00
10658;BME280;5377;43.276;26.930;2023-07-31T05:14:17;98521.63;;;22.93;100.00
10658;BME280;5377;43.276;26.930;2023-07-31T05:16:45;98526.69;;;22.99;100.00
10658;BME280;5377;43.276;26.930;2023-07-31T05:19:12;98510.81;;;23.01;100.00
10658;BME280;5377;43.276;26.930;2023-07-31T05:21:39;98499.69;;;22.98;100.00
10658;BME280;5377;43.276;26.930;2023-07-31T05:24:06;98526.81;;;23.08;100.00
10658;BME280;5377;43.276;26.930;2023-07-31T05:26:34;98498.22;;;22.87;100.00
10658;BME280;5377;43.276;26.930;2023-07-31T05:29:01;98535.91;;;23.03;100.00
10658;BME280;5377;43.276;26.930;2023-07-31T05:31:30;98532.75;;;22.96;100.00
10658;BME280;5377;43.276;26.930;2023-07-31T05:33:57;98533.41;;;22.88;100.00
10658;BME280;5377;43.276;26.930;2023-07-31T05:36:24;98542.66;;;22.92;100.00
10658;BME280;5377;43.276;26.930;2023-07-31T05:38:51;98538.44;;;22.81;100.00
10658;BME280;5377;43.276;26.930;2023-07-31T05:41:18;98536.75;;;22.66;100.00
10658;BME280;5377;43.276;26.930;2023-07-31T05:43:46;98523.81;;;22.53;100.00
10658;BME280;5377;43.276;26.930;2023-07-31T05:46:13;98553.41;;;22.65;100.00
10658;BME280;5377;43.276;26.930;2023-07-31T05:48:39;98551.28;;;22.62;100.00
10658;BME280;5377;43.276;26.930;2023-07-31T05:51:06;98554.91;;;22.57;100.00
10658;BME280;5377;43.276;26.930;2023-07-31T05:53:33;98540.44;;;22.57;100.00
10658;BME280;5377;43.276;26.930;2023-07-31T05:56:01;98555.03;;;22.66;100.00
10658;BME280;5377;43.276;26.930;2023-07-31T05:58:28;98544.03;;;22.71;100.00
10658;BME280;5377;43.276;26.930;2023-07-31T06:00:56;98549.81;;;22.69;100.00
10658;BME280;5377;43.276;26.930;2023-07-31T06:03:23;98547.38;;;22.68;100.00
10658;BME280;5377;43.276;26.930;2023-07-31T06:05:52;98564.78;;;22.72;100.00
10658;BME280;5377;43.276;26.930;2023-07-31T06:08:19;98568.25;;;22.59;100.00
10658;BME280;5377;43.276;26.930;2023-07-31T06:10:46;98562.69;;;22.45;100.00
10658;BME280;5377;43.276;26.930;2023-07-31T06:13:13;98539.88;;;22.17;100.00
10658;BME280;5377;43.276;26.930;2023-07-31T06:15:39;98565.28;;;22.36;100.00
10658;BME280;5377;43.276;26.930;2023-07-31T06:18:08;98575.59;;;22.39;100.00
10658;BME280;5377;43.276;26.930;2023-07-31T06:20:35;98576.50;;;22.54;100.00
10658;BME280;5377;43.276;26.930;2023-07-31T06:23:02;98567.19;;;22.55;100.00
10658;BME280;5377;43.276;26.930;2023-07-31T06:25:29;98571.63;;;22.51;100.00
10658;BME280;5377;43.276;26.930;2023-07-31T06:27:56;98584.41;;;22.55;100.00
10658;BME280;5377;43.276;26.930;2023-07-31T06:30:23;98586.59;;;22.53;100.00
10658;BME280;5377;43.276;26.930;2023-07-31T06:32:50;98592.53;;;22.60;100.00
10658;BME280;5377;43.276;26.930;2023-07-31T06:35:18;98535.25;;;22.36;100.00
10658;BME280;5377;43.276;26.930;2023-07-31T06:37:44;98597.03;;;22.89;100.00
10658;BME280;5377;43.276;26.930;2023-07-31T06:40:11;98553.03;;;22.71;100.00
10658;BME280;5377;43.276;26.930;2023-07-31T06:42:38;98600.16;;;23.01;100.00
10658;BME280;5377;43.276;26.930;2023-07-31T06:45:06;98591.19;;;23.14;100.00
10658;BME280;5377;43.276;26.930;2023-07-31T06:47:33;98593.63;;;23.16;100.00
10658;BME280;5377;43.276;26.930;2023-07-31T06:50:00;98599.28;;;23.19;100.00
10658;BME280;5377;43.276;26.930;2023-07-31T06:52:28;98597.84;;;23.27;100.00
10658;BME280;5377;43.276;26.930;2023-07-31T06:55:02;98599.16;;;23.29;100.00
10658;BME280;5377;43.276;26.930;2023-07-31T06:57:30;98604.09;;;23.27;100.00
10658;BME280;5377;43.276;26.930;2023-07-31T06:59:56;98583.13;;;23.23;100.00
10658;BME280;5377;43.276;26.930;2023-07-31T07:02:23;98596.50;;;23.24;100.00
10658;BME280;5377;43.276;26.930;2023-07-31T07:04:50;98595.53;;;23.34;100.00
10658;BME280;5377;43.276;26.930;2023-07-31T07:07:18;98600.97;;;23.34;100.00
10658;BME280;5377;43.276;26.930;2023-07-31T07:09:46;98597.66;;;23.37;100.00
10658;BME280;5377;43.276;26.930;2023-07-31T07:12:12;98608.06;;;23.35;100.00
10658;BME280;5377;43.276;26.930;2023-07-31T07:14:39;98611.34;;;23.51;100.00
10658;BME280;5377;43.276;26.930;2023-07-31T07:17:06;98607.06;;;23.63;100.00
10658;BME280;5377;43.276;26.930;2023-07-31T07:19:33;98609.88;;;23.58;100.00
10658;BME280;5377;43.276;26.930;2023-07-31T07:22:00;98617.09;;;23.68;100.00
10658;BME280;5377;43.276;26.930;2023-07-31T07:24:27;98613.47;;;23.73;100.00
10658;BME280;5377;43.276;26.930;2023-07-31T07:26:55;98619.75;;;23.73;100.00
10658;BME280;5377;43.276;26.930;2023-07-31T07:29:22;98619.63;;;23.64;100.00
10658;BME280;5377;43.276;26.930;2023-07-31T07:31:49;98619.94;;;23.44;100.00
10658;BME280;5377;43.276;26.930;2023-07-31T07:34:16;98631.06;;;23.34;100.00
10658;BME280;5377;43.276;26.930;2023-07-31T07:36:43;98647.97;;;23.36;100.00
10658;BME280;5377;43.276;26.930;2023-07-31T07:39:10;98639.94;;;23.26;100.00
10658;BME280;5377;43.276;26.930;2023-07-31T07:41:37;98660.22;;;23.20;100.00
10658;BME280;5377;43.276;26.930;2023-07-31T07:44:05;98654.47;;;23.21;100.00
10658;BME280;5377;43.276;26.930;2023-07-31T07:46:32;98665.47;;;23.16;100.00
10658;BME280;5377;43.276;26.930;2023-07-31T07:48:59;98672.94;;;23.11;100.00
10658;BME280;5377;43.276;26.930;2023-07-31T07:51:26;98678.25;;;23.21;100.00
10658;BME280;5377;43.276;26.930;2023-07-31T07:53:52;98672.44;;;23.27;100.00
10658;BME280;5377;43.276;26.930;2023-07-31T07:56:19;98616.63;;;22.96;100.00
10658;BME280;5377;43.276;26.930;2023-07-31T07:58:48;98681.34;;;23.33;100.00
10658;BME280;5377;43.276;26.930;2023-07-31T08:01:17;98682.84;;;23.25;100.00
10658;BME280;5377;43.276;26.930;2023-07-31T08:03:43;98689.03;;;23.31;100.00
10658;BME280;5377;43.276;26.930;2023-07-31T08:06:10;98679.94;;;23.36;100.00
10658;BME280;5377;43.276;26.930;2023-07-31T08:08:38;98690.56;;;23.18;100.00
10658;BME280;5377;43.276;26.930;2023-07-31T08:11:05;98684.88;;;23.15;100.00
10658;BME280;5377;43.276;26.930;2023-07-31T08:13:32;98686.88;;;23.09;100.00
10658;BME280;5377;43.276;26.930;2023-07-31T08:15:59;98686.44;;;23.02;100.00
10658;BME280;5377;43.276;26.930;2023-07-31T08:18:27;98700.00;;;22.88;100.00
10658;BME280;5377;43.276;26.930;2023-07-31T08:20:54;98716.34;;;22.93;100.00
10658;BME280;5377;43.276;26.930;2023-07-31T08:23:20;98713.66;;;22.88;100.00
10658;BME280;5377;43.276;26.930;2023-07-31T08:25:47;98719.41;;;22.87;100.00
10658;BME280;5377;43.276;26.930;2023-07-31T08:28:16;98731.34;;;22.96;100.00
10658;BME280;5377;43.276;26.930;2023-07-31T08:30:42;98737.09;;;22.94;100.00
10658;BME280;5377;43.276;26.930;2023-07-31T08:33:09;98726.75;;;22.91;100.00
10658;BME280;5377;43.276;26.930;2023-07-31T08:35:38;98718.91;;;22.85;100.00
10658;BME280;5377;43.276;26.930;2023-07-31T08:38:04;98730.81;;;22.94;100.00
10658;BME280;5377;43.276;26.930;2023-07-31T08:40:31;98732.72;;;22.93;100.00
10658;BME280;5377;43.276;26.930;2023-07-31T08:42:58;98737.31;;;22.98;100.00
10658;BME280;5377;43.276;26.930;2023-07-31T08:45:28;98731.34;;;22.96;100.00
10658;BME280;5377;43.276;26.930;2023-07-31T08:47:56;98731.16;;;22.87;100.00
10658;BME280;5377;43.276;26.930;2023-07-31T08:50:23;98745.50;;;22.74;100.00
10658;BME280;5377;43.276;26.930;2023-07-31T08:52:52;98743.34;;;22.71;100.00
10658;BME280;5377;43.276;26.930;2023-07-31T08:55:19;98731.75;;;22.60;100.00
10658;BME280;5377;43.276;26.930;2023-07-31T08:57:50;98750.06;;;22.55;100.00
10658;BME280;5377;43.276;26.930;2023-07-31T09:00:18;98755.72;;;22.63;100.00
10658;BME280;5377;43.276;26.930;2023-07-31T09:02:46;98753.28;;;22.62;100.00
10658;BME280;5377;43.276;26.930;2023-07-31T09:05:15;98747.31;;;22.60;100.00
10658;BME280;5377;43.276;26.930;2023-07-31T09:07:45;98751.44;;;22.57;100.00
10658;BME280;5377;43.276;26.930;2023-07-31T09:10:14;98754.41;;;22.61;100.00
10658;BME280;5377;43.276;26.930;2023-07-31T09:12:42;98747.19;;;22.70;100.00
10658;BME280;5377;43.276;26.930;2023-07-31T09:15:11;98754.09;;;22.62;100.00
10658;BME280;5377;43.276;26.930;2023-07-31T09:17:37;98748.50;;;22.49;100.00
10658;BME280;5377;43.276;26.930;2023-07-31T09:20:14;98740.44;;;22.38;100.00
10658;BME280;5377;43.276;26.930;2023-07-31T09:22:42;98734.22;;;22.33;100.00
10658;BME280;5377;43.276;26.930;2023-07-31T09:25:17;98751.75;;;22.51;100.00
10658;BME280;5377;43.276;26.930;2023-07-31T09:27:48;98746.88;;;22.48;100.00
10658;BME280;5377;43.276;26.930;2023-07-31T09:30:15;98755.88;;;22.48;100.00
10658;BME280;5377;43.276;26.930;2023-07-31T09:32:43;98756.19;;;22.47;100.00
10658;BME280;5377;43.276;26.930;2023-07-31T09:35:18;98751.19;;;22.54;100.00
10658;BME280;5377;43.276;26.930;2023-07-31T09:37:49;98756.09;;;22.57;100.00
10658;BME280;5377;43.276;26.930;2023-07-31T09:40:27;98744.22;;;22.66;100.00
10658;BME280;5377;43.276;26.930;2023-07-31T09:42:56;98762.91;;;22.78;100.00
10658;BME280;5377;43.276;26.930;2023-07-31T09:45:23;98773.75;;;22.88;100.00
10658;BME280;5377;43.276;26.930;2023-07-31T09:47:51;98770.25;;;22.83;100.00
10658;BME280;5377;43.276;26.930;2023-07-31T09:50:19;98756.81;;;22.91;100.00
10658;BME280;5377;43.276;26.930;2023-07-31T09:52:46;98758.97;;;22.89;100.00
10658;BME280;5377;43.276;26.930;2023-07-31T09:55:13;98763.28;;;22.95;100.00
10658;BME280;5377;43.276;26.930;2023-07-31T09:57:44;98761.16;;;22.92;100.00
10658;BME280;5377;43.276;26.930;2023-07-31T10:00:12;98765.75;;;22.97;100.00
10658;BME280;5377;43.276;26.930;2023-07-31T10:02:41;98750.16;;;22.97;100.00
10658;BME280;5377;43.276;26.930;2023-07-31T10:05:08;98749.88;;;22.99;100.00
10658;BME280;5377;43.276;26.930;2023-07-31T10:07:37;98743.88;;;22.97;100.00
10658;BME280;5377;43.276;26.930;2023-07-31T10:10:07;98744.91;;;23.01;100.00
10658;BME280;5377;43.276;26.930;2023-07-31T10:12:35;98744.91;;;23.01;100.00
10658;BME280;5377;43.276;26.930;2023-07-31T10:15:04;98738.41;;;22.97;100.00
10658;BME280;5377;43.276;26.930;2023-07-31T10:17:32;98726.31;;;23.03;100.00
10658;BME280;5377;43.276;26.930;2023-07-31T10:20:02;98734.47;;;23.27;100.00
10658;BME280;5377;43.276;26.930;2023-07-31T10:22:30;98727.78;;;23.14;100.00
10658;BME280;5377;43.276;26.930;2023-07-31T10:24:58;98734.75;;;23.25;100.00
10658;BME280;5377;43.276;26.930;2023-07-31T10:27:26;98727.88;;;23.28;100.00
10658;BME280;5377;43.276;26.930;2023-07-31T10:29:54;98732.59;;;23.41;100.00
10658;BME280;5377;43.276;26.930;2023-07-31T10:32:23;98726.88;;;23.61;100.00
10658;BME280;5377;43.276;26.930;2023-07-31T10:34:51;98721.84;;;23.82;100.00
10658;BME280;5377;43.276;26.930;2023-07-31T10:37:23;98712.66;;;23.92;100.00
10658;BME280;5377;43.276;26.930;2023-07-31T10:39:58;98686.03;;;23.98;100.00
10658;BME280;5377;43.276;26.930;2023-07-31T10:42:30;98690.72;;;24.24;100.00
10658;BME280;5377;43.276;26.930;2023-07-31T10:44:58;98687.13;;;24.43;100.00
10658;BME280;5377;43.276;26.930;2023-07-31T10:47:26;98693.72;;;24.69;100.00
10658;BME280;5377;43.276;26.930;2023-07-31T10:50:11;98670.13;;;25.09;100.00
10658;BME280;5377;43.276;26.930;2023-07-31T10:52:38;98658.31;;;25.45;100.00
10658;BME280;5377;43.276;26.930;2023-07-31T10:55:15;98653.88;;;26.02;100.00
10658;BME280;5377;43.276;26.930;2023-07-31T10:57:44;98638.56;;;26.58;100.00
10658;BME280;5377;43.276;26.930;2023-07-31T11:00:19;98625.06;;;27.05;100.00
10658;BME280;5377;43.276;26.930;2023-07-31T11:03:04;98598.66;;;27.56;100.00
10658;BME280;5377;43.276;26.930;2023-07-31T11:05:45;98591.34;;;27.77;100.00
10658;BME280;5377;43.276;26.930;2023-07-31T11:08:31;98585.88;;;28.07;100.00
10658;BME280;5377;43.276;26.930;2023-07-31T11:11:06;98591.28;;;27.94;100.00
10658;BME280;5377;43.276;26.930;2023-07-31T11:13:40;98589.22;;;27.83;100.00
10658;BME280;5377;43.276;26.930;2023-07-31T11:16:07;98588.31;;;27.53;100.00
10658;BME280;5377;43.276;26.930;2023-07-31T11:18:35;98589.97;;;27.28;100.00
10658;BME280;5377;43.276;26.930;2023-07-31T11:21:02;98592.41;;;27.21;100.00
10658;BME280;5377;43.276;26.930;2023-07-31T11:23:29;98564.88;;;26.69;100.00
10658;BME280;5377;43.276;26.930;2023-07-31T11:25:59;98570.88;;;26.62;100.00
10658;BME280;5377;43.276;26.930;2023-07-31T11:28:26;98602.22;;;26.53;100.00
10658;BME280;5377;43.276;26.930;2023-07-31T11:30:55;98604.34;;;26.25;100.00
10658;BME280;5377;43.276;26.930;2023-07-31T11:33:22;98599.03;;;26.28;100.00
10658;BME280;5377;43.276;26.930;2023-07-31T11:35:50;98602.25;;;25.82;100.00
10658;BME280;5377;43.276;26.930;2023-07-31T11:38:24;98594.03;;;25.60;100.00
10658;BME280;5377;43.276;26.930;2023-07-31T11:40:51;98585.81;;;25.60;100.00
10658;BME280;5377;43.276;26.930;2023-07-31T11:43:19;98593.19;;;25.73;100.00
10658;BME280;5377;43.276;26.930;2023-07-31T11:45:47;98584.66;;;25.83;100.00
10658;BME280;5377;43.276;26.930;2023-07-31T11:48:21;98583.66;;;26.10;100.00
10658;BME280;5377;43.276;26.930;2023-07-31T11:50:51;98569.16;;;26.27;100.00
10658;BME280;5377;43.276;26.930;2023-07-31T11:53:22;98563.59;;;26.49;100.00
10658;BME280;5377;43.276;26.930;2023-07-31T11:55:52;98562.81;;;26.75;100.00
10658;BME280;5377;43.276;26.930;2023-07-31T11:58:19;98560.88;;;27.01;100.00
10658;BME280;5377;43.276;26.930;2023-07-31T12:00:47;98551.41;;;27.54;100.00
10658;BME280;5377;43.276;26.930;2023-07-31T12:03:15;98548.03;;;27.95;100.00
10658;BME280;5377;43.276;26.930;2023-07-31T12:05:42;98545.72;;;28.06;100.00
10658;BME280;5377;43.276;26.930;2023-07-31T12:08:11;98540.06;;;28.02;100.00
10658;BME280;5377;43.276;26.930;2023-07-31T12:10:38;98541.81;;;28.07;100.00
10658;BME280;5377;43.276;26.930;2023-07-31T12:13:08;98531.75;;;28.40;100.00
10658;BME280;5377;43.276;26.930;2023-07-31T12:15:40;98534.84;;;28.89;100.00
10658;BME280;5377;43.276;26.930;2023-07-31T12:18:08;98513.81;;;29.63;96.07
10658;BME280;5377;43.276;26.930;2023-07-31T12:20:40;98504.91;;;30.55;87.12
10658;BME280;5377;43.276;26.930;2023-07-31T12:23:07;98485.28;;;31.44;77.37
10658;BME280;5377;43.276;26.930;2023-07-31T12:25:35;98493.97;;;31.89;77.17
10658;BME280;5377;43.276;26.930;2023-07-31T12:28:06;98490.59;;;32.66;72.60
10658;BME280;5377;43.276;26.930;2023-07-31T12:30:37;98486.91;;;32.43;69.35
10658;BME280;5377;43.276;26.930;2023-07-31T12:33:05;98476.00;;;31.83;70.31
10658;BME280;5377;43.276;26.930;2023-07-31T12:35:39;98483.84;;;31.50;73.61
10658;BME280;5377;43.276;26.930;2023-07-31T12:38:07;98476.44;;;31.38;75.90
10658;BME280;5377;43.276;26.930;2023-07-31T12:40:37;98447.94;;;31.22;75.09
10658;BME280;5377;43.276;26.930;2023-07-31T12:43:04;98478.25;;;31.78;76.38
10658;BME280;5377;43.276;26.930;2023-07-31T12:45:30;98478.63;;;31.76;72.66
10658;BME280;5377;43.276;26.930;2023-07-31T12:47:57;98452.16;;;31.79;74.96
10658;BME280;5377;43.276;26.930;2023-07-31T12:50:24;98474.59;;;31.74;70.25
10658;BME280;5377;43.276;26.930;2023-07-31T12:52:53;98473.41;;;30.99;72.90
10658;BME280;5377;43.276;26.930;2023-07-31T12:55:19;98474.63;;;30.86;73.14
10658;BME280;5377;43.276;26.930;2023-07-31T12:57:48;98476.19;;;30.31;74.63